01:10
Airports
History
Links
Donate
Help keep this website running!
PayPal
Bitcoin
This page is community maintained. The information is intended for PC simulator navigation or reference.
Always use approved charts for navigation.
CYTF
ALMA
ALMA (CYTF)
Alma, Québec, Canada
(U)
Lat/Lng:48° 30' 31.5" N / 71° 38' 31.01" W
48.50875 / -71.641946
Elevation:445'ft / 136mMSL
ID / ICAO:CYTF
Runways:1
Longest:(13-31) 1,303.6m / 4,277ft Asphalt
Distance To
Airport ID:
Airport Radio Frequencies
CTAF/UNICOM: 123
Approach: 127.2
Nearby VORs <50NM
Nearby NDBs
Nearby WeatherUpdated 08-24-17 01:00 GMT
Nearby weather at CYRJ, ROBERVAL located 28.6 nautical miles from CYTF
Altimeter: 29.59
Visibility: 25.0 statute miles
Wind: 9 knots (240°)
Temp: 14°c 57°f
Humidity: 76.8%

METAR: CYRJ 240100Z 24009G15KT 25SM BKN086 14/10 A2959 RMK AC7 SLP025 DENSITY ALT 1000FT

(Powered by phpweather)
Runway 13 / 31
Dimensions:1303.6 x 30.5m 4277' x 100'ft
Surface:Asphalt
Edge Lights:Medium intensity
Runway 13 [A]Runway 31 [B]
Heading:113°TH 293°TH
Lat:
Lng:
48° 30' 40"N
71° 39' 0.01"W
48° 30' 23"N
71° 38' 2"W
ALS:MALSMALS
User Notes and Comments
Google Map
Nearby Airports
(C) ST HONORE 27.1 NM
CYRC E 88°
(U) ROBERVAL 28.6 NM
CYRJ (WX) W 271°
(C) BAGOTVILLE 32.1 NM
CYBG (WX) ESE 112°
(U) DOLBEAU ST FELICIEN 38.3 NM
CYDO WNW 299°
(U) CHARLEVOIX 90.8 NM
CYML SE 133°
(U) LA TUQUE 92.6 NM
CYLQ SW 214°
(U) Riviere-du-loup 107.9 NM
CYRI ESE 118°
VFR Chart
Flight Planning at SkyVector.com